Time;durP1;ratioP1;P1;durP2;ratioP2;P2;SDS_P1;SDS_P2;PMS_P1;PMS_P2;Temp;Humidity;BMP_temperature;BMP_pressure;BME280_temperature;BME280_humidity;BME280_pressure;Samples;Min_cycle;Max_cycle;Signal;HPM_P1;HPM_P2
2024/01/06 00:01:30;;;;;;;4.78;2.90;;;6.00;99.90;;;;;;4955205;28;20071;-72
2024/01/06 00:03:56;;;;;;;6.75;3.00;;;6.00;99.90;;;;;;4960077;28;20039;-73
2024/01/06 00:06:22;;;;;;;9.75;3.67;;;6.00;99.90;;;;;;4946766;28;20109;-72
2024/01/06 00:08:53;;;;;;;5.70;2.90;;;5.90;99.90;;;;;;4955408;28;20039;-72
2024/01/06 00:11:20;;;;;;;7.35;3.13;;;5.90;99.90;;;;;;4949684;28;20138;-74
2024/01/06 00:13:46;;;;;;;7.10;3.38;;;5.90;99.90;;;;;;4957826;28;20030;-73
2024/01/06 00:16:11;;;;;;;5.68;2.72;;;5.90;99.90;;;;;;4956025;28;20074;-73
2024/01/06 00:18:37;;;;;;;6.18;3.08;;;5.90;99.90;;;;;;4950549;28;20026;-74
2024/01/06 00:21:03;;;;;;;5.75;2.90;;;5.90;99.90;;;;;;4957167;28;20092;-73
2024/01/06 00:23:28;;;;;;;8.77;3.28;;;5.80;99.90;;;;;;4950788;28;20032;-72
2024/01/06 00:25:54;;;;;;;5.78;3.08;;;5.70;99.90;;;;;;4957477;28;20051;-72
2024/01/06 00:28:19;;;;;;;6.43;3.35;;;5.80;99.90;;;;;;4952733;28;20043;-71
2024/01/06 00:30:45;;;;;;;6.28;2.83;;;5.70;99.90;;;;;;4960008;28;20043;-74
2024/01/06 00:33:12;;;;;;;5.07;2.60;;;5.70;99.90;;;;;;4954943;28;20502;-72
2024/01/06 00:35:37;;;;;;;3.42;1.92;;;5.70;99.90;;;;;;4955933;28;20035;-74
2024/01/06 00:38:03;;;;;;;4.93;2.03;;;5.70;99.90;;;;;;4953742;28;20047;-73
2024/01/06 00:40:29;;;;;;;4.15;1.88;;;5.70;99.90;;;;;;4957630;28;20043;-73
2024/01/06 00:42:54;;;;;;;4.93;2.42;;;5.70;99.90;;;;;;4957570;28;20041;-72
2024/01/06 00:45:20;;;;;;;5.03;2.22;;;5.60;99.90;;;;;;4952945;28;20139;-72
2024/01/06 00:47:46;;;;;;;4.65;2.10;;;5.60;99.90;;;;;;4955899;28;20121;-73
2024/01/06 00:50:12;;;;;;;4.90;2.15;;;5.60;99.90;;;;;;4955721;28;20114;-73
2024/01/06 00:52:37;;;;;;;17.85;2.38;;;5.60;99.90;;;;;;4948723;28;20575;-73
2024/01/06 00:55:03;;;;;;;5.70;2.13;;;5.60;99.90;;;;;;4956097;28;20047;-73
2024/01/06 00:57:29;;;;;;;4.07;2.08;;;5.60;99.90;;;;;;4947069;28;20062;-73
2024/01/06 00:59:54;;;;;;;3.42;1.95;;;5.60;99.90;;;;;;4948581;28;20035;-73
2024/01/06 01:02:20;;;;;;;4.10;1.95;;;5.60;99.90;;;;;;4952384;28;20038;-73
2024/01/06 01:04:45;;;;;;;3.25;1.67;;;5.60;99.90;;;;;;4950019;28;20062;-73
2024/01/06 01:07:12;;;;;;;6.72;2.40;;;5.60;99.90;;;;;;4954557;28;20055;-73
2024/01/06 01:09:38;;;;;;;3.50;2.08;;;5.50;99.90;;;;;;4951679;28;20039;-74
2024/01/06 01:12:03;;;;;;;3.50;2.05;;;5.50;99.90;;;;;;4946124;28;20503;-74
2024/01/06 01:14:29;;;;;;;2.50;1.30;;;5.60;99.90;;;;;;4936938;28;20042;-73
2024/01/06 01:16:55;;;;;;;3.45;1.52;;;5.50;99.90;;;;;;4953169;28;20031;-73
2024/01/06 01:19:20;;;;;;;2.45;1.40;;;5.50;99.90;;;;;;4939804;28;20062;-73
2024/01/06 01:21:46;;;;;;;4.35;1.70;;;5.50;99.90;;;;;;4954797;28;20042;-73
2024/01/06 01:24:11;;;;;;;4.88;1.85;;;5.50;99.90;;;;;;4956772;28;20062;-72
2024/01/06 01:26:37;;;;;;;5.13;2.35;;;5.50;99.90;;;;;;4953275;28;20114;-72
2024/01/06 01:29:02;;;;;;;3.80;2.08;;;5.40;99.90;;;;;;4948502;28;20730;-73
2024/01/06 01:31:28;;;;;;;6.10;2.10;;;5.50;99.90;;;;;;4951890;28;20065;-72
2024/01/06 01:33:53;;;;;;;5.03;2.00;;;5.50;99.90;;;;;;4953267;28;20573;-72
2024/01/06 01:36:19;;;;;;;5.82;2.80;;;5.50;99.90;;;;;;4956962;28;20475;-72
2024/01/06 01:38:45;;;;;;;8.30;2.63;;;5.50;99.90;;;;;;4952166;28;20089;-72
2024/01/06 01:41:10;;;;;;;4.00;2.15;;;5.50;99.90;;;;;;4952052;28;20038;-72
2024/01/06 01:43:36;;;;;;;4.50;2.13;;;5.60;99.90;;;;;;4950640;28;20027;-72
2024/01/06 01:46:02;;;;;;;5.75;2.22;;;5.50;99.90;;;;;;4950936;28;20126;-73
2024/01/06 01:48:27;;;;;;;3.38;1.63;;;5.60;99.90;;;;;;4954985;28;20043;-72
2024/01/06 01:50:54;;;;;;;3.00;1.33;;;5.50;99.90;;;;;;4946910;28;20069;-72
2024/01/06 01:53:20;;;;;;;12.10;2.33;;;5.50;99.90;;;;;;4943867;28;20152;-73
2024/01/06 01:55:47;;;;;;;5.70;1.90;;;5.50;99.90;;;;;;4947622;28;20046;-72
2024/01/06 01:58:14;;;;;;;4.53;2.50;;;5.50;99.90;;;;;;4949532;28;20031;-72
2024/01/06 02:00:39;;;;;;;3.95;2.30;;;5.50;99.90;;;;;;4954021;28;20547;-72
2024/01/06 02:03:06;;;;;;;4.70;2.50;;;5.50;99.90;;;;;;4945379;28;20123;-71
2024/01/06 02:05:32;;;;;;;6.10;2.72;;;5.50;99.90;;;;;;4954054;28;20047;-72
2024/01/06 02:07:57;;;;;;;4.60;2.60;;;5.50;99.90;;;;;;4949694;28;20039;-73
2024/01/06 02:10:23;;;;;;;4.57;2.50;;;5.50;99.90;;;;;;4951430;28;20121;-72
2024/01/06 02:12:51;;;;;;;3.75;2.00;;;5.50;99.90;;;;;;4950179;28;20114;-71
2024/01/06 02:15:17;;;;;;;3.40;1.63;;;5.50;99.90;;;;;;4953188;28;20066;-73
2024/01/06 02:17:43;;;;;;;6.72;2.28;;;5.50;99.90;;;;;;4952044;28;20118;-73
2024/01/06 02:20:09;;;;;;;5.10;2.67;;;5.50;99.90;;;;;;4956725;28;20465;-73
2024/01/06 02:22:36;;;;;;;4.93;2.53;;;5.40;99.90;;;;;;4957498;28;20113;-73
2024/01/06 02:25:07;;;;;;;14.30;3.50;;;5.50;99.90;;;;;;4958583;28;20055;-73
2024/01/06 02:27:33;;;;;;;5.25;2.17;;;5.40;99.90;;;;;;4954335;28;20403;-74
2024/01/06 02:29:58;;;;;;;7.97;2.75;;;5.50;99.90;;;;;;4957535;28;20053;-73
2024/01/06 02:32:24;;;;;;;8.52;3.00;;;5.50;99.90;;;;;;4958818;28;20031;-72
2024/01/06 02:34:50;;;;;;;16.15;3.83;;;5.40;99.90;;;;;;4957134;28;20035;-74
2024/01/06 02:37:15;;;;;;;9.15;3.75;;;5.50;99.90;;;;;;4959810;28;20126;-72
2024/01/06 02:39:41;;;;;;;5.65;3.22;;;5.50;99.90;;;;;;4956071;28;20027;-73
2024/01/06 02:42:06;;;;;;;8.40;2.95;;;5.40;99.90;;;;;;4958373;28;20573;-73
2024/01/06 02:44:32;;;;;;;9.45;2.72;;;5.40;99.90;;;;;;4956211;28;20121;-73
2024/01/06 02:46:57;;;;;;;5.20;2.70;;;5.40;99.90;;;;;;4957994;28;20038;-72
2024/01/06 02:49:23;;;;;;;6.60;3.03;;;5.40;99.90;;;;;;4954883;28;20043;-72
2024/01/06 02:51:48;;;;;;;7.75;3.00;;;5.40;99.90;;;;;;4950723;28;20109;-72
2024/01/06 02:54:14;;;;;;;5.63;2.63;;;5.40;99.90;;;;;;4959807;28;20517;-73
2024/01/06 02:56:40;;;;;;;7.50;2.60;;;5.40;99.90;;;;;;4954748;28;20083;-72
2024/01/06 02:59:05;;;;;;;11.85;4.03;;;5.40;99.90;;;;;;4959072;28;20031;-72
2024/01/06 03:01:32;;;;;;;7.07;2.58;;;5.40;99.90;;;;;;4957440;28;20039;-72
2024/01/06 03:03:57;;;;;;;6.40;2.50;;;5.40;99.90;;;;;;4955826;28;20115;-72
2024/01/06 03:06:23;;;;;;;3.22;1.83;;;5.40;99.90;;;;;;4959481;28;20489;-72
2024/01/06 03:08:48;;;;;;;6.57;2.42;;;5.40;99.90;;;;;;4950438;28;20042;-72
2024/01/06 03:11:14;;;;;;;2.55;1.48;;;5.40;99.90;;;;;;4958214;28;20047;-72
2024/01/06 03:13:40;;;;;;;4.07;1.15;;;5.40;99.90;;;;;;4955729;28;20114;-72
2024/01/06 03:16:05;;;;;;;7.15;1.77;;;5.40;99.90;;;;;;4959031;28;20042;-73
2024/01/06 03:18:31;;;;;;;4.20;1.90;;;5.30;99.90;;;;;;4958482;28;20387;-72
2024/01/06 03:20:57;;;;;;;2.95;1.60;;;5.30;99.90;;;;;;4957943;28;20416;-73
2024/01/06 03:23:22;;;;;;;7.53;2.05;;;5.30;99.90;;;;;;4954073;28;20046;-72
2024/01/06 03:25:48;;;;;;;6.57;2.38;;;5.30;99.90;;;;;;4956710;28;20766;-73
2024/01/06 03:28:13;;;;;;;4.57;1.88;;;5.30;99.90;;;;;;4957058;28;20594;-72
2024/01/06 03:30:39;;;;;;;3.03;1.92;;;5.30;99.90;;;;;;4953727;28;20043;-73
2024/01/06 03:33:06;;;;;;;2.75;1.60;;;5.30;99.90;;;;;;4959144;28;20031;-73
2024/01/06 03:35:31;;;;;;;2.85;1.60;;;5.20;99.90;;;;;;4957019;28;20126;-73
2024/01/06 03:37:57;;;;;;;4.95;1.65;;;5.30;99.90;;;;;;4957638;28;20256;-72
2024/01/06 03:40:23;;;;;;;7.43;1.35;;;5.30;99.90;;;;;;4959380;28;20041;-72
2024/01/06 03:42:49;;;;;;;2.20;1.10;;;5.20;99.90;;;;;;4954136;28;20034;-72
2024/01/06 03:45:14;;;;;;;5.45;2.75;;;5.30;99.90;;;;;;4952311;28;20450;-72
2024/01/06 03:47:40;;;;;;;2.38;1.27;;;5.30;99.90;;;;;;4953198;28;20031;-73
2024/01/06 03:50:06;;;;;;;5.05;2.05;;;5.20;99.90;;;;;;4958424;28;20035;-72
2024/01/06 03:52:31;;;;;;;4.70;2.17;;;5.20;99.90;;;;;;4955024;28;20168;-72
2024/01/06 03:54:57;;;;;;;4.78;2.25;;;5.20;99.90;;;;;;4953908;28;20396;-73
2024/01/06 03:57:22;;;;;;;4.40;2.08;;;5.20;99.90;;;;;;4956929;28;20036;-72
2024/01/06 03:59:48;;;;;;;3.88;1.80;;;5.20;99.90;;;;;;4957169;28;20064;-72
2024/01/06 04:02:14;;;;;;;2.35;1.30;;;5.10;99.90;;;;;;4946389;28;20035;-72
2024/01/06 04:04:39;;;;;;;4.50;1.60;;;5.20;99.90;;;;;;4957721;28;20035;-73
2024/01/06 04:07:06;;;;;;;2.95;1.63;;;5.20;99.90;;;;;;4958054;28;20542;-73
2024/01/06 04:09:32;;;;;;;4.70;1.92;;;5.20;99.90;;;;;;4957658;28;20031;-73
2024/01/06 04:11:57;;;;;;;9.88;2.83;;;5.10;99.90;;;;;;4950182;28;20035;-73
2024/01/06 04:14:23;;;;;;;4.90;1.88;;;5.20;99.90;;;;;;4956486;28;20039;-72
2024/01/06 04:16:49;;;;;;;7.93;2.05;;;5.20;99.90;;;;;;4948920;28;20416;-72
2024/01/06 04:19:15;;;;;;;10.10;2.67;;;5.10;99.90;;;;;;4953643;28;20036;-72
2024/01/06 04:21:40;;;;;;;2.88;1.48;;;5.10;99.90;;;;;;4957195;28;20082;-73
2024/01/06 04:24:06;;;;;;;6.30;2.28;;;5.10;99.90;;;;;;4958700;28;20039;-73
2024/01/06 04:26:32;;;;;;;3.17;2.15;;;5.00;99.90;;;;;;4959797;28;20058;-73
2024/01/06 04:28:57;;;;;;;3.17;2.17;;;5.00;99.90;;;;;;4953254;28;20500;-72
2024/01/06 04:31:23;;;;;;;5.32;2.00;;;5.10;99.90;;;;;;4954679;28;20079;-73
2024/01/06 04:33:49;;;;;;;5.95;3.03;;;5.10;99.90;;;;;;4959341;28;20028;-72
2024/01/06 04:36:14;;;;;;;7.97;3.13;;;5.00;99.90;;;;;;4951580;28;20054;-72
2024/01/06 04:38:40;;;;;;;7.15;2.95;;;5.00;99.90;;;;;;4949164;28;20034;-72
2024/01/06 04:41:05;;;;;;;4.90;2.45;;;5.00;99.90;;;;;;4945293;28;20036;-73
2024/01/06 04:43:31;;;;;;;4.35;2.70;;;5.10;99.90;;;;;;4953296;28;20035;-72
2024/01/06 04:45:57;;;;;;;6.53;3.03;;;5.00;99.90;;;;;;4948613;28;20117;-72
2024/01/06 04:48:23;;;;;;;6.07;2.45;;;5.10;99.90;;;;;;4951420;28;20035;-72
2024/01/06 04:50:49;;;;;;;9.50;2.83;;;5.00;99.90;;;;;;4939148;28;20053;-72
2024/01/06 04:53:14;;;;;;;8.13;2.45;;;5.00;99.90;;;;;;4944263;28;20054;-73
2024/01/06 04:55:40;;;;;;;3.42;1.95;;;5.00;99.90;;;;;;4950124;28;20555;-73
2024/01/06 04:58:05;;;;;;;5.07;2.90;;;5.00;99.90;;;;;;4946215;28;20042;-73
2024/01/06 05:00:31;;;;;;;6.32;2.33;;;5.00;99.90;;;;;;4953460;28;20511;-72
2024/01/06 05:02:56;;;;;;;4.53;1.75;;;5.00;99.90;;;;;;4942955;28;20054;-72
2024/01/06 05:05:22;;;;;;;5.22;1.95;;;5.00;99.90;;;;;;4956558;28;20031;-72
2024/01/06 05:07:48;;;;;;;7.38;2.25;;;5.00;99.90;;;;;;4952181;28;20034;-72
2024/01/06 05:10:13;;;;;;;24.30;2.72;;;5.00;99.90;;;;;;4953670;28;20051;-73
2024/01/06 05:12:39;;;;;;;3.80;1.77;;;5.00;99.90;;;;;;4952793;28;20059;-73
2024/01/06 05:15:05;;;;;;;7.20;2.67;;;5.00;99.90;;;;;;4951973;28;20043;-73
2024/01/06 05:17:30;;;;;;;7.38;2.47;;;5.00;99.90;;;;;;4954986;28;20098;-72
2024/01/06 05:19:56;;;;;;;7.50;2.38;;;5.00;99.90;;;;;;4951254;28;20041;-73
2024/01/06 05:22:22;;;;;;;5.25;2.42;;;4.90;99.90;;;;;;4956253;28;20503;-73
2024/01/06 05:24:47;;;;;;;4.13;1.90;;;4.90;99.90;;;;;;4955613;28;20066;-73
2024/01/06 05:27:13;;;;;;;4.00;1.83;;;4.90;99.90;;;;;;4953887;28;20448;-73
2024/01/06 05:29:38;;;;;;;3.90;1.92;;;4.90;99.90;;;;;;4951720;28;20031;-72
2024/01/06 05:32:04;;;;;;;3.75;1.77;;;4.80;99.90;;;;;;4949767;28;20039;-73
2024/01/06 05:34:29;;;;;;;3.83;1.75;;;4.80;99.90;;;;;;4956764;28;20070;-73
2024/01/06 05:36:55;;;;;;;3.85;1.83;;;4.80;99.90;;;;;;4954069;28;20039;-72
2024/01/06 05:39:21;;;;;;;4.90;1.77;;;4.80;99.90;;;;;;4954362;28;20035;-72
2024/01/06 05:41:46;;;;;;;2.78;1.27;;;4.80;99.90;;;;;;4955016;28;20555;-72
2024/01/06 05:44:12;;;;;;;3.72;1.52;;;4.80;99.90;;;;;;4954098;28;20035;-73
2024/01/06 05:46:37;;;;;;;1.30;0.90;;;4.80;99.90;;;;;;4953624;28;20118;-73
2024/01/06 05:49:04;;;;;;;2.03;0.98;;;4.80;99.90;;;;;;4951490;28;20043;-73
2024/01/06 05:51:29;;;;;;;2.38;1.23;;;4.80;99.90;;;;;;4954417;28;20047;-72
2024/01/06 05:53:55;;;;;;;4.55;2.03;;;4.80;99.90;;;;;;4954174;28;20915;-72
2024/01/06 05:56:25;;;;;;;5.05;1.90;;;4.80;99.90;;;;;;4959471;28;20039;-73
2024/01/06 05:58:51;;;;;;;6.88;1.80;;;4.80;99.90;;;;;;4955438;28;20055;-72
2024/01/06 06:01:17;;;;;;;3.13;1.77;;;4.80;99.90;;;;;;4955472;28;20098;-72
2024/01/06 06:03:43;;;;;;;2.88;1.60;;;4.80;99.90;;;;;;4952504;28;20419;-72
2024/01/06 06:06:08;;;;;;;2.78;1.40;;;4.80;99.90;;;;;;4939313;28;20151;-73
2024/01/06 06:08:34;;;;;;;2.83;1.45;;;4.80;99.90;;;;;;4957312;28;20038;-74
2024/01/06 06:11:10;;;;;;;3.33;1.45;;;4.90;99.90;;;;;;4953648;28;20043;-73
2024/01/06 06:13:38;;;;;;;3.28;1.70;;;4.80;99.90;;;;;;4949068;28;20036;-73
2024/01/06 06:16:05;;;;;;;3.70;1.88;;;4.80;99.90;;;;;;4954153;28;20033;-72
2024/01/06 06:18:30;;;;;;;5.57;2.13;;;4.80;99.90;;;;;;4953831;28;20035;-72
2024/01/06 06:20:56;;;;;;;3.72;2.13;;;4.80;99.90;;;;;;4954320;28;20042;-73
2024/01/06 06:23:22;;;;;;;5.80;1.70;;;4.80;99.90;;;;;;4956839;28;20088;-72
2024/01/06 06:25:47;;;;;;;6.38;2.10;;;4.70;99.90;;;;;;4955301;28;20650;-72
2024/01/06 06:28:13;;;;;;;7.80;1.95;;;4.80;99.90;;;;;;4956341;28;20031;-73
2024/01/06 06:30:39;;;;;;;4.18;1.95;;;4.80;99.90;;;;;;4957770;28;20051;-73
2024/01/06 06:33:04;;;;;;;4.88;2.33;;;4.70;99.90;;;;;;4956773;28;20027;-73
2024/01/06 06:35:30;;;;;;;4.18;1.48;;;4.80;99.90;;;;;;4952307;28;20542;-72
2024/01/06 06:37:55;;;;;;;3.50;1.55;;;4.70;99.90;;;;;;4956055;28;20049;-72
2024/01/06 06:40:21;;;;;;;2.90;1.70;;;4.70;99.90;;;;;;4958042;28;20089;-72
2024/01/06 06:42:47;;;;;;;3.63;1.40;;;4.70;99.90;;;;;;4954008;28;20507;-72
2024/01/06 06:45:13;;;;;;;3.10;1.20;;;4.70;99.90;;;;;;4954282;28;20472;-72
2024/01/06 06:47:38;;;;;;;4.50;1.40;;;4.80;99.90;;;;;;4960098;28;20553;-73
2024/01/06 06:50:05;;;;;;;5.22;2.40;;;4.80;99.90;;;;;;4957129;28;20043;-72
2024/01/06 06:52:30;;;;;;;2.17;1.35;;;4.70;99.90;;;;;;4955608;28;20050;-73
2024/01/06 06:54:56;;;;;;;3.85;1.33;;;4.70;99.90;;;;;;4952064;28;20046;-72
2024/01/06 06:57:22;;;;;;;3.53;1.70;;;4.80;99.90;;;;;;4959236;28;20031;-72
2024/01/06 06:59:47;;;;;;;2.65;1.20;;;4.80;99.90;;;;;;4954990;28;20027;-72
2024/01/06 07:02:13;;;;;;;3.47;1.38;;;4.80;99.90;;;;;;4952767;28;20395;-72
2024/01/06 07:04:38;;;;;;;3.20;1.20;;;4.80;99.90;;;;;;4956600;28;20038;-72
2024/01/06 07:07:04;;;;;;;3.80;1.23;;;4.80;99.90;;;;;;4954451;28;20035;-73
2024/01/06 07:09:30;;;;;;;3.35;1.02;;;4.70;99.90;;;;;;4958234;28;20034;-71
2024/01/06 07:11:55;;;;;;;4.40;1.90;;;4.70;99.90;;;;;;4958639;28;20042;-72
2024/01/06 07:14:21;;;;;;;2.33;1.45;;;4.70;99.90;;;;;;4958289;28;20027;-72
2024/01/06 07:16:46;;;;;;;3.15;1.42;;;4.60;99.90;;;;;;4959436;28;20109;-72
2024/01/06 07:19:12;;;;;;;4.63;1.73;;;4.60;99.90;;;;;;4953868;28;20035;-72
2024/01/06 07:21:37;;;;;;;3.30;1.73;;;4.60;99.90;;;;;;4956998;28;20498;-72
2024/01/06 07:24:03;;;;;;;2.45;1.45;;;4.60;99.90;;;;;;4956115;28;20102;-73
2024/01/06 07:26:29;;;;;;;3.65;1.38;;;4.60;99.90;;;;;;4957586;28;20042;-72
2024/01/06 07:28:55;;;;;;;3.45;1.67;;;4.50;99.90;;;;;;4955012;28;20047;-72
2024/01/06 07:31:20;;;;;;;2.03;1.40;;;4.50;99.90;;;;;;4957393;28;20047;-72
2024/01/06 07:33:46;;;;;;;4.47;1.60;;;4.50;99.90;;;;;;4954849;28;20134;-73
2024/01/06 07:36:12;;;;;;;7.55;2.60;;;4.50;99.90;;;;;;4958727;28;20126;-72
2024/01/06 07:38:37;;;;;;;4.65;1.70;;;4.50;99.90;;;;;;4956921;28;20045;-73
2024/01/06 07:41:04;;;;;;;4.95;1.95;;;4.50;99.90;;;;;;4956076;28;20121;-74
2024/01/06 07:43:30;;;;;;;6.10;2.40;;;4.50;99.90;;;;;;4956700;28;20038;-72
2024/01/06 07:45:56;;;;;;;3.50;1.90;;;4.50;99.90;;;;;;4954203;28;20142;-72
2024/01/06 07:48:22;;;;;;;3.65;1.90;;;4.50;99.90;;;;;;4956817;28;20045;-72
2024/01/06 07:50:47;;;;;;;4.32;1.95;;;4.50;99.90;;;;;;4957261;28;20042;-72
2024/01/06 07:53:16;;;;;;;3.50;1.58;;;4.60;99.90;;;;;;4949380;28;20499;-73
2024/01/06 07:55:42;;;;;;;4.95;2.63;;;4.50;99.90;;;;;;4954576;28;20035;-72
2024/01/06 07:58:08;;;;;;;6.03;2.50;;;4.60;99.90;;;;;;4950661;28;20057;-72
2024/01/06 08:00:33;;;;;;;6.25;1.80;;;4.60;99.90;;;;;;4953865;28;20038;-72
2024/01/06 08:03:00;;;;;;;4.82;2.38;;;4.60;99.90;;;;;;4944965;28;20452;-72
2024/01/06 08:05:25;;;;;;;3.80;1.98;;;4.60;99.90;;;;;;4955203;28;20563;-72
2024/01/06 08:07:51;;;;;;;7.22;2.28;;;4.60;99.90;;;;;;4950730;28;20038;-72
2024/01/06 08:10:17;;;;;;;4.97;2.45;;;4.70;99.90;;;;;;4945615;28;20092;-72
2024/01/06 08:12:43;;;;;;;4.45;2.10;;;4.70;99.90;;;;;;4949455;28;20146;-72
2024/01/06 08:15:09;;;;;;;4.60;1.80;;;4.60;99.90;;;;;;4954420;28;20667;-73
2024/01/06 08:17:35;;;;;;;6.10;2.53;;;4.60;99.90;;;;;;4950065;28;20032;-74
2024/01/06 08:20:01;;;;;;;4.70;2.08;;;4.60;99.90;;;;;;4946039;28;20046;-72
2024/01/06 08:22:26;;;;;;;7.57;2.33;;;4.60;99.90;;;;;;4951953;28;20036;-72
2024/01/06 08:24:52;;;;;;;5.35;2.15;;;4.60;99.90;;;;;;4954714;28;20066;-72
2024/01/06 08:27:18;;;;;;;7.10;2.15;;;4.60;99.90;;;;;;4953442;28;20031;-72
2024/01/06 08:29:43;;;;;;;5.63;2.30;;;4.60;99.90;;;;;;4955168;28;20459;-72
2024/01/06 08:32:10;;;;;;;5.28;1.92;;;4.60;99.90;;;;;;4954705;28;20510;-72
2024/01/06 08:34:35;;;;;;;5.32;1.85;;;4.60;99.90;;;;;;4951044;28;20043;-72
2024/01/06 08:37:01;;;;;;;5.30;2.00;;;4.60;99.90;;;;;;4939230;28;20054;-72
2024/01/06 08:39:26;;;;;;;6.70;2.28;;;4.60;99.90;;;;;;4950466;28;20053;-72
2024/01/06 08:41:52;;;;;;;3.85;2.17;;;4.60;99.90;;;;;;4951269;28;20034;-72
2024/01/06 08:44:17;;;;;;;6.57;2.25;;;4.70;99.90;;;;;;4952038;28;20082;-72
2024/01/06 08:46:43;;;;;;;4.28;1.58;;;4.70;99.90;;;;;;4952005;28;20039;-72
2024/01/06 08:49:09;;;;;;;3.63;1.83;;;4.70;99.90;;;;;;4943288;28;20055;-73
2024/01/06 08:51:35;;;;;;;4.40;1.73;;;4.70;99.90;;;;;;4950146;28;20431;-73
2024/01/06 08:54:04;;;;;;;2.50;1.55;;;4.70;99.90;;;;;;4944848;28;20043;-72
2024/01/06 08:56:30;;;;;;;4.50;1.17;;;4.80;99.90;;;;;;4941903;28;20589;-72
2024/01/06 08:58:56;;;;;;;3.17;1.60;;;4.80;99.90;;;;;;4949871;28;20122;-72
2024/01/06 09:01:22;;;;;;;3.78;2.15;;;4.80;99.90;;;;;;4952272;28;20150;-72
2024/01/06 09:03:49;;;;;;;4.60;1.38;;;4.90;99.90;;;;;;4952249;28;20216;-71
2024/01/06 09:06:15;;;;;;;4.40;1.20;;;4.90;99.90;;;;;;4947460;28;20043;-72
2024/01/06 09:08:41;;;;;;;5.22;1.60;;;4.90;99.90;;;;;;4947241;28;20090;-72
2024/01/06 09:11:06;;;;;;;2.75;1.10;;;4.90;99.90;;;;;;4941092;28;20517;-72
2024/01/06 09:13:32;;;;;;;7.18;1.80;;;4.90;99.90;;;;;;4934658;28;20035;-71
2024/01/06 09:15:59;;;;;;;3.42;1.27;;;5.00;99.90;;;;;;4944348;28;20478;-71
2024/01/06 09:18:26;;;;;;;4.13;1.70;;;5.00;99.90;;;;;;4943444;28;20058;-72
2024/01/06 09:20:52;;;;;;;5.68;1.88;;;5.00;99.90;;;;;;4945987;28;20559;-72
2024/01/06 09:23:17;;;;;;;8.30;1.80;;;5.00;99.90;;;;;;4940052;28;20045;-72
2024/01/06 09:25:43;;;;;;;4.93;1.73;;;5.00;99.90;;;;;;4944588;28;20761;-72
2024/01/06 09:28:09;;;;;;;3.20;1.30;;;5.00;99.90;;;;;;4942169;28;20121;-73
2024/01/06 09:30:34;;;;;;;2.97;1.05;;;5.10;99.90;;;;;;4945666;28;20050;-73
2024/01/06 09:33:00;;;;;;;3.13;0.90;;;5.10;99.90;;;;;;4948193;28;20767;-71
2024/01/06 09:35:25;;;;;;;2.55;1.23;;;5.10;99.90;;;;;;4949197;28;20127;-72
2024/01/06 09:37:51;;;;;;;3.17;1.77;;;5.10;99.90;;;;;;4960745;28;20065;-72
2024/01/06 09:40:22;;;;;;;4.72;1.30;;;5.00;99.90;;;;;;4955143;28;20035;-72
2024/01/06 09:42:55;;;;;;;7.10;1.58;;;5.00;99.90;;;;;;4942666;28;20066;-73
2024/01/06 09:45:21;;;;;;;3.17;1.40;;;5.00;99.90;;;;;;4946261;28;20035;-72
2024/01/06 09:47:51;;;;;;;4.68;1.60;;;5.00;99.90;;;;;;4947794;28;20046;-71
2024/01/06 09:50:20;;;;;;;3.90;1.77;;;5.10;99.90;;;;;;4949520;28;20522;-72
2024/01/06 09:52:55;;;;;;;3.95;1.55;;;5.00;99.90;;;;;;4947352;28;20287;-72
2024/01/06 09:55:26;;;;;;;3.35;1.45;;;5.00;99.90;;;;;;4954712;28;20053;-72
2024/01/06 09:57:54;;;;;;;5.20;1.63;;;5.00;99.90;;;;;;4950457;28;20090;-72
2024/01/06 10:00:21;;;;;;;2.22;1.23;;;5.00;99.90;;;;;;4947903;28;20035;-72
2024/01/06 10:02:51;;;;;;;3.72;1.63;;;5.00;99.90;;;;;;4943827;28;20092;-72
2024/01/06 10:05:17;;;;;;;6.97;2.35;;;4.90;99.90;;;;;;4944964;28;20043;-72
2024/01/06 10:07:44;;;;;;;3.33;1.98;;;4.80;99.90;;;;;;4953694;28;20045;-72
2024/01/06 10:10:10;;;;;;;4.07;1.58;;;4.80;99.90;;;;;;4946568;28;20039;-73
2024/01/06 10:12:40;;;;;;;4.75;1.52;;;4.80;99.90;;;;;;4946684;28;20050;-72
2024/01/06 10:15:07;;;;;;;4.93;1.42;;;4.80;99.90;;;;;;4946358;28;20191;-73
2024/01/06 10:17:36;;;;;;;10.70;2.83;;;4.80;99.90;;;;;;4950937;28;20039;-72
2024/01/06 10:20:02;;;;;;;5.15;2.13;;;4.90;99.90;;;;;;4954621;28;20054;-72
2024/01/06 10:22:28;;;;;;;3.25;1.45;;;4.90;99.90;;;;;;4946959;28;20589;-73
2024/01/06 10:24:55;;;;;;;2.45;1.40;;;4.80;99.90;;;;;;4945854;28;20039;-73
2024/01/06 10:27:21;;;;;;;5.30;1.52;;;4.80;99.90;;;;;;4949650;28;20500;-72
2024/01/06 10:29:47;;;;;;;5.90;1.80;;;4.80;99.90;;;;;;4950028;28;20043;-73
2024/01/06 10:32:13;;;;;;;5.13;1.15;;;4.80;99.90;;;;;;4952011;28;20694;-72
2024/01/06 10:34:38;;;;;;;4.78;1.88;;;4.80;99.90;;;;;;4950247;28;20039;-72
2024/01/06 10:37:05;;;;;;;7.45;1.85;;;4.80;99.90;;;;;;4948421;28;20038;-74
2024/01/06 10:39:31;;;;;;;4.53;1.52;;;4.90;99.90;;;;;;4950573;28;20027;-73
2024/01/06 10:41:57;;;;;;;6.28;2.15;;;4.80;99.90;;;;;;4952235;28;20039;-72
2024/01/06 10:44:24;;;;;;;3.38;1.30;;;4.90;99.90;;;;;;4953586;28;20034;-72
2024/01/06 10:46:52;;;;;;;3.47;1.58;;;4.90;99.90;;;;;;4955769;28;20563;-73
2024/01/06 10:49:21;;;;;;;5.28;1.23;;;4.90;99.90;;;;;;4957637;28;20471;-72
2024/01/06 10:51:48;;;;;;;2.67;1.45;;;4.90;99.90;;;;;;4948319;28;20067;-74
2024/01/06 10:54:15;;;;;;;4.47;1.70;;;4.90;99.90;;;;;;4955478;28;20035;-72
2024/01/06 10:56:43;;;;;;;3.20;1.35;;;4.90;99.90;;;;;;4948313;28;20028;-73
2024/01/06 10:59:11;;;;;;;6.70;1.95;;;4.90;99.90;;;;;;4954834;28;20033;-72
2024/01/06 11:01:38;;;;;;;6.50;1.90;;;4.90;99.90;;;;;;4954600;28;20625;-73
2024/01/06 11:04:07;;;;;;;5.50;1.70;;;4.90;99.90;;;;;;4957742;28;20058;-73
2024/01/06 11:06:33;;;;;;;3.67;2.13;;;4.90;99.90;;;;;;4952579;28;20035;-73
2024/01/06 11:09:02;;;;;;;3.67;1.45;;;4.80;99.90;;;;;;4945695;28;20036;-73
2024/01/06 11:11:29;;;;;;;3.58;1.50;;;4.80;99.90;;;;;;4948962;28;21291;-72
2024/01/06 11:14:24;;;;;;;7.35;1.70;;;4.90;99.90;;;;;;4954669;28;20035;-73
2024/01/06 11:16:51;;;;;;;3.58;1.77;;;4.90;99.90;;;;;;4951564;28;20034;-73
2024/01/06 11:19:35;;;;;;;5.57;2.03;;;4.90;99.90;;;;;;4939705;28;20032;-73
2024/01/06 11:22:28;;;;;;;3.10;1.38;;;5.00;99.90;;;;;;4952890;28;20039;-72
2024/01/06 11:24:58;;;;;;;3.42;1.40;;;4.90;99.90;;;;;;4947796;28;20042;-73
2024/01/06 11:27:28;;;;;;;5.38;1.35;;;5.00;99.90;;;;;;4952153;28;20047;-72
2024/01/06 11:29:55;;;;;;;3.25;1.60;;;4.90;99.90;;;;;;4943652;28;20071;-73
2024/01/06 11:32:25;;;;;;;5.07;2.35;;;4.90;99.90;;;;;;4954737;28;20070;-72
2024/01/06 11:34:52;;;;;;;4.40;2.17;;;4.90;99.90;;;;;;4953666;28;20035;-73
2024/01/06 11:37:36;;;;;;;3.72;1.80;;;4.90;99.90;;;;;;4952749;28;20038;-72
2024/01/06 11:40:02;;;;;;;4.10;1.35;;;5.00;99.90;;;;;;4950477;28;20027;-73
2024/01/06 11:42:35;;;;;;;4.95;1.95;;;4.90;99.90;;;;;;4954869;28;20089;-72
2024/01/06 11:45:08;;;;;;;4.32;1.70;;;5.00;99.90;;;;;;4949819;28;20043;-73
2024/01/06 11:47:35;;;;;;;4.82;1.40;;;4.90;99.90;;;;;;4954422;28;20412;-72
2024/01/06 11:50:04;;;;;;;3.00;1.63;;;4.90;99.90;;;;;;4952417;28;20046;-73
2024/01/06 11:52:31;;;;;;;2.67;1.45;;;4.90;99.90;;;;;;4947031;28;20835;-72
2024/01/06 11:54:58;;;;;;;5.70;1.60;;;4.90;99.90;;;;;;4947396;28;20050;-73
2024/01/06 11:57:28;;;;;;;9.77;2.65;;;4.90;99.90;;;;;;4950301;28;20090;-73
2024/01/06 11:59:54;;;;;;;4.10;1.92;;;4.90;99.90;;;;;;4942673;28;20083;-72
2024/01/06 12:02:20;;;;;;;3.47;1.90;;;4.90;99.90;;;;;;4950049;28;20404;-72
2024/01/06 12:04:50;;;;;;;3.20;1.30;;;4.90;99.90;;;;;;4940850;28;20031;-73
2024/01/06 12:07:17;;;;;;;3.42;2.28;;;4.90;99.90;;;;;;4941290;28;20090;-72
2024/01/06 12:09:42;;;;;;;11.73;2.63;;;4.90;99.90;;;;;;4945239;28;20050;-72
2024/01/06 12:12:10;;;;;;;4.18;1.40;;;4.90;99.90;;;;;;4946457;28;20877;-72
2024/01/06 12:14:37;;;;;;;9.57;2.17;;;4.90;99.90;;;;;;4947687;28;20392;-72
2024/01/06 12:17:04;;;;;;;5.18;2.55;;;4.90;99.90;;;;;;4939614;28;20046;-73
2024/01/06 12:19:33;;;;;;;6.90;2.47;;;4.90;99.90;;;;;;4942447;28;20074;-72
2024/01/06 12:21:59;;;;;;;3.40;1.35;;;4.90;99.90;;;;;;4938055;28;20753;-72
2024/01/06 12:24:28;;;;;;;5.15;1.73;;;4.90;99.90;;;;;;4942814;28;20138;-72
2024/01/06 12:26:57;;;;;;;5.88;1.90;;;4.90;99.90;;;;;;4947854;28;20106;-72
2024/01/06 12:29:22;;;;;;;5.30;1.42;;;4.90;99.90;;;;;;4949355;28;20037;-72
2024/01/06 12:31:48;;;;;;;2.72;1.45;;;4.90;99.90;;;;;;4944166;28;20039;-72
2024/01/06 12:34:13;;;;;;;5.78;1.70;;;4.90;99.90;;;;;;4941893;28;20369;-72
2024/01/06 12:36:42;;;;;;;3.55;1.10;;;4.90;99.90;;;;;;4950162;28;20830;-73
2024/01/06 12:39:14;;;;;;;5.40;1.70;;;4.90;99.90;;;;;;4939791;28;20766;-73
2024/01/06 12:41:43;;;;;;;4.40;1.77;;;4.90;99.90;;;;;;4939694;28;20641;-72
2024/01/06 12:44:09;;;;;;;3.40;1.25;;;4.90;99.90;;;;;;4958330;28;20207;-72
2024/01/06 12:46:35;;;;;;;7.50;2.03;;;5.00;99.90;;;;;;4938370;28;20570;-72
2024/01/06 12:49:02;;;;;;;3.22;1.17;;;5.00;99.90;;;;;;4944040;28;20031;-72
2024/01/06 12:51:28;;;;;;;4.07;1.17;;;5.00;99.90;;;;;;4943961;28;20062;-72
2024/01/06 12:53:53;;;;;;;2.90;1.45;;;5.00;99.90;;;;;;4942471;28;20326;-72